Adams, New York
Current Conditions -  °F | °C
As of 8:56 AM on Wednesday 22 Oct 2014 (Local Time) from KART Reporting Station
Overcast Overcast  
Wind Chill: 40°   Ceiling: 1800
Heat Index: 46°   Visibility: 10mi
Dew Point: 36°   Wind: 13mph
Humidity: 68%   Direction: 40°NE
Pressure: 30.2"   Gusts: NA
Location:  43.81°N, 76.02°W
Report Text: KART 221256Z AUTO 04011KT 10SM OVC018 08/02 A3020 RMK AO2 SLP227 T00780022
Loading
Personal Weather Stations






























Interactive Weather Map
Tropical Storm Tracking
New forecast layout! Learn more

10-Day Weather Forecast

Advertisements
Track Severe Weather on mobile